FMMIFIMP

Guest
Details From FMMI - IVATO
To FIMP - SIR SEEWOOSAGUR RAMGOOLAM INTL
Flight Number -
Tags generated
Created
Modified
Stats Distance 586 nm / 1,084 km
Max Altitude 35,000 ft / 10,668 m
Waypoints 12
Social Downloads 2
Likes 0
Share VATSIM

Download

Looking for another format? Having issues loading an existing format? Contact us
Advertisement - Login to hide

Notes

Basic altitude profile: - Ascent Rate: 2500ft/min - Ascent Speed: 250kts - Cruise Altitude: 25000ft - Cruise Speed: 280kts - Descent Rate: 1500ft/min - Descent Speed: 250kts Options: - Use NATs: yes - Use PACOTS: yes - Use low airways: yes - Use high airways: yes

Route

FMMI TNV A401F TE UA400 EGLIP UA400F RASMA A400F PLS FIMP

ID Type Via Altitude Latitude Longitude Leg Dist Tot Dist Heading (true) Name
O FMMI APT - 0 ft / 0 m -18.79695˚ 47.47881˚ - 0 nm - IVATO
TNV VOR - 800 ft / 244 m -18.80333˚ 47.51867˚ 2 nm 2 nm 100° / 100° IVATO VOR-DME
TE NDB A401F (AWY-LO) 15,500 ft / 4,724 m -18.95342˚ 48.22550˚ 41 nm 43 nm 103° / 103° MORAMANGA NDB
IXENI FIX UA400 (AWY-HI) 35,000 ft / 10,668 m -19.28694˚ 50.10833˚ 108 nm 152 nm 101° / 100° -
EGLIP FIX UA400 (AWY-HI) 35,000 ft / 10,668 m -19.77919˚ 53.12164˚ 173 nm 325 nm 100° / 99° -
OKDOP FIX UA400F (AWY-HI) 35,000 ft / 10,668 m -19.94786˚ 54.23656˚ 63 nm 389 nm 99° / 99° -
TAMTA FIX UA400F (AWY-HI) 35,000 ft / 10,668 m -20.00506˚ 54.62619˚ 22 nm 411 nm 99° / 99° -
PONIR FIX UA400F (AWY-HI) 31,400 ft / 9,571 m -20.07503˚ 55.11122˚ 27 nm 438 nm 99° / 99° -
ALUNA FIX UA400F (AWY-HI) 25,400 ft / 7,742 m -20.13281˚ 55.51944˚ 23 nm 462 nm 99° / 99° -
RASMA FIX UA400F (AWY-HI) 19,100 ft / 5,822 m -20.20422˚ 56.03369˚ 29 nm 491 nm 99° / 98° -
PLS VOR A400F (AWY-LO) 3,500 ft / 1,067 m -20.42003˚ 57.66233˚ 92 nm 584 nm 98° / 98° PLAISANCE VOR-DME
O FIMP APT - 0 ft / 0 m -20.43023˚ 57.68360˚ 1 nm 585 nm 117° / 117° SIR SEEWOOSAGUR RAMGOOLAM INTL

Altitude Profile

Advertisement - Login to hide

Weather


0- 5 10 15 20 25 30 35+ Temperature / ° C

Clouds and Precipitation
Forecast for 2017-12-18 00:00 UTC. Updated 20 minutes ago

Ground ~20,000 ft ~40,000 ft Winds

FMMI

Details ICAO FMMI (TNR)
Name IVATO
Region Comoros, Mayotte, Réunion and Madagascar
Timezone Indian/Antananarivo (UTC+3.0)
Stats Elevation 4,198 ft / 1,280 m (AMSL)
Location -18.796950° 47.478806°
Runways 1
Magnetic Variation 15.161° W

METAR

FMMI 171930Z 09005KT 9999 FEW010 BKN020 19/17 Q1022 NOSIG

Decode

TAF

TAF FMMI 171100Z 1712/1818 13010KT 9999 SCT017 BKN020= TAF FMCH 171100Z 1712/1818 30008KT 9999 SCT020TCU SCT030 PROB30 TEMPO 1712/1717 4000 TS SHRA BKN015CB PROB30 TEMPO 1718/1724 4000 SHRA

Decode

Departure Runways

ID Width Length Bearing (true) Bearing (mag) Surface Threshold Offset Overrun Length
11 148 ft / 45 m 10,167 ft / 3,099 m 98.92° 114.08° Asphalt 0 ft / 0 m 90 ft / 27 m
29 148 ft / 45 m 10,167 ft / 3,099 m 278.91° 294.07° Asphalt 0 ft / 0 m 90 ft / 27 m

FIMP

Details ICAO FIMP (MRU)
Name SIR SEEWOOSAGUR RAMGOOLAM INTL
Region Mauritius
Timezone Indian/Mauritius (UTC+4.0)
Stats Elevation 186 ft / 57 m (AMSL)
Location -20.430235° 57.683602°
Runways 1
Magnetic Variation 18.412° W

METAR

FIMP 171900Z 09007KT 9999 FEW016 BKN250 26/21 Q1018

Decode

TAF

TAF FIMP 171710Z 1718/1900 09008KT 9999 SCT018 BECMG 1804/1806 09012KT

Decode

Destination Runways

ID Width Length Bearing (true) Bearing (mag) Surface Threshold Offset Overrun Length
14 148 ft / 45 m 11,037 ft / 3,364 m 117.22° 135.63° Asphalt 1,082 ft / 330 m 200 ft / 61 m
32 148 ft / 45 m 11,037 ft / 3,364 m 297.21° 315.62° Asphalt 0 ft / 0 m 0 ft / 0 m

Approach Navaids

Runway Type Ident Frequency Range Bearing (true) Bearing (mag) Slope Elevation
14 Localiser IPL 109.90 MHz 18 nm / 33 km 117.52° 135.93° - 186 ft / 57 m (AMSL)
14 Glidescope IPL 109.90 MHz 10 nm / 19 km 117.22° 135.63° 3.50° 186 ft / 57 m (AMSL)
14 DME IPL 109.90 MHz 18 nm / 33 km - - - 186 ft / 57 m (AMSL)

Popular Alternatives